createdAt,value
2019-03-04T00:01:17.873Z,82.70
2019-03-04T00:03:47.209Z,82.90
2019-03-04T00:06:16.378Z,83.10
2019-03-04T00:08:45.566Z,82.90
2019-03-04T00:11:14.828Z,83.20
2019-03-04T00:13:44.141Z,82.80
2019-03-04T00:16:13.507Z,82.90
2019-03-04T00:18:42.833Z,83.60
2019-03-04T00:21:12.005Z,83.70
2019-03-04T00:23:41.205Z,84.00
2019-03-04T00:26:10.533Z,84.20
2019-03-04T00:28:39.880Z,85.20
2019-03-04T00:31:09.167Z,84.30
2019-03-04T00:33:38.332Z,84.50
2019-03-04T00:36:07.639Z,84.50
2019-03-04T00:38:36.966Z,84.90
2019-03-04T00:41:06.144Z,85.40
2019-03-04T00:43:35.373Z,85.40
2019-03-04T00:46:04.643Z,85.90
2019-03-04T00:48:33.891Z,86.60
2019-03-04T00:51:03.233Z,87.00
2019-03-04T00:53:32.507Z,87.70
2019-03-04T00:56:01.823Z,88.20
2019-03-04T00:58:31.140Z,88.60
2019-03-04T01:01:00.410Z,88.90
2019-03-04T01:03:29.666Z,89.50
2019-03-04T01:05:58.905Z,90.10
2019-03-04T01:08:28.114Z,90.10
2019-03-04T01:10:57.435Z,90.30
2019-03-04T01:13:26.847Z,90.80
2019-03-04T01:15:56.104Z,91.00
2019-03-04T01:18:25.278Z,92.00
2019-03-04T01:20:54.609Z,91.90
2019-03-04T01:23:23.967Z,92.40
2019-03-04T01:25:53.205Z,92.20
2019-03-04T01:28:22.444Z,92.40
2019-03-04T01:30:51.669Z,92.30
2019-03-04T01:33:20.905Z,91.10
2019-03-04T01:35:50.156Z,90.90
2019-03-04T01:38:19.433Z,90.20
2019-03-04T01:40:48.771Z,90.30
2019-03-04T01:43:18.038Z,89.30
2019-03-04T01:45:47.249Z,89.20
2019-03-04T01:48:16.498Z,88.80
2019-03-04T01:50:45.670Z,87.00
2019-03-04T01:53:14.870Z,87.30
2019-03-04T01:55:44.117Z,85.70
2019-03-04T01:58:13.285Z,85.60
2019-03-04T02:00:42.648Z,85.00
2019-03-04T02:03:11.885Z,84.30
2019-03-04T02:05:41.205Z,84.30
2019-03-04T02:08:10.416Z,83.80
2019-03-04T02:10:39.654Z,82.00
2019-03-04T02:13:08.883Z,81.30
2019-03-04T02:15:38.221Z,81.50
2019-03-04T02:18:07.684Z,80.60
2019-03-04T02:20:36.931Z,78.60
2019-03-04T02:23:06.259Z,76.50
2019-03-04T02:26:14.470Z,75.70
2019-03-04T02:28:43.715Z,74.50
2019-03-04T02:31:12.959Z,73.50
2019-03-04T02:33:42.117Z,72.50
2019-03-04T02:36:11.308Z,68.70
2019-03-04T02:38:40.627Z,67.30
2019-03-04T02:41:09.857Z,65.70
2019-03-04T02:43:39.158Z,64.20
2019-03-04T02:46:08.482Z,64.10
2019-03-04T02:48:37.702Z,64.50
2019-03-04T02:51:06.966Z,64.50
2019-03-04T02:53:36.203Z,65.00
2019-03-04T02:56:05.440Z,66.00
2019-03-04T02:58:34.691Z,66.60
2019-03-04T03:01:03.995Z,67.70
2019-03-04T03:03:33.308Z,68.70
2019-03-04T03:06:02.584Z,69.70
2019-03-04T03:08:31.805Z,70.40
2019-03-04T03:11:01.116Z,71.40
2019-03-04T03:13:30.384Z,71.40
2019-03-04T03:15:59.604Z,72.20
2019-03-04T03:18:28.763Z,72.90
2019-03-04T03:20:58.039Z,73.20
2019-03-04T03:23:27.282Z,73.60
2019-03-04T03:25:56.532Z,73.90
2019-03-04T03:28:25.792Z,73.60
2019-03-04T03:30:54.972Z,73.80
2019-03-04T03:33:24.304Z,74.10
2019-03-04T03:35:53.589Z,74.80
2019-03-04T03:38:22.896Z,74.80
2019-03-04T03:40:52.208Z,75.00
2019-03-04T03:43:21.590Z,74.30
2019-03-04T03:45:50.747Z,74.80
2019-03-04T03:48:20.063Z,74.40
2019-03-04T03:50:49.345Z,73.60
2019-03-04T03:53:18.596Z,73.80
2019-03-04T03:55:47.905Z,73.40
2019-03-04T03:58:17.213Z,73.60
2019-03-04T04:00:46.439Z,72.10
2019-03-04T04:03:16.096Z,72.20
2019-03-04T04:05:45.499Z,72.10
2019-03-04T04:08:14.676Z,72.00
2019-03-04T04:10:43.913Z,72.10
2019-03-04T04:13:13.284Z,72.50
2019-03-04T04:15:42.590Z,73.20
2019-03-04T04:18:11.821Z,72.60
2019-03-04T04:20:41.150Z,72.40
2019-03-04T04:23:10.303Z,72.50
2019-03-04T04:25:39.555Z,72.70
2019-03-04T04:28:10.292Z,72.70
2019-03-04T04:30:40.397Z,72.80
2019-03-04T04:33:09.612Z,73.00
2019-03-04T04:35:38.891Z,73.10
2019-03-04T04:38:08.118Z,73.00
2019-03-04T04:40:37.419Z,72.90
2019-03-04T04:43:06.812Z,73.40
2019-03-04T04:45:36.075Z,81.90
2019-03-04T04:48:05.314Z,91.40
2019-03-04T04:50:34.860Z,90.30
2019-03-04T04:53:04.107Z,96.00
2019-03-04T04:55:33.276Z,96.50
2019-03-04T04:58:02.543Z,91.50
2019-03-04T05:00:31.802Z,93.00
2019-03-04T05:03:00.978Z,91.50
2019-03-04T05:05:30.235Z,91.90
2019-03-04T05:07:59.503Z,93.40
2019-03-04T05:10:28.661Z,96.10
2019-03-04T05:12:57.835Z,99.90
2019-03-04T05:15:27.508Z,99.90
2019-03-04T05:17:56.666Z,99.90
2019-03-04T05:20:25.865Z,99.90
2019-03-04T05:22:55.018Z,99.90
2019-03-04T05:25:24.239Z,99.90
2019-03-04T05:27:53.420Z,99.90
2019-03-04T05:30:22.894Z,99.90
2019-03-04T05:32:52.204Z,99.90
2019-03-04T05:35:21.887Z,99.90
2019-03-04T05:37:51.114Z,99.90
2019-03-04T05:40:20.271Z,99.90
2019-03-04T05:42:49.738Z,99.90
2019-03-04T05:45:19.078Z,99.90
2019-03-04T05:47:48.255Z,99.20
2019-03-04T05:50:17.787Z,93.90
2019-03-04T05:52:47.060Z,94.00
2019-03-04T05:55:16.372Z,92.70
2019-03-04T05:57:45.692Z,93.60
2019-03-04T06:00:17.389Z,92.10
2019-03-04T06:02:46.617Z,92.20
2019-03-04T06:05:16.129Z,91.40
2019-03-04T06:08:00.652Z,92.00
2019-03-04T06:10:29.884Z,91.50
2019-03-04T06:12:59.187Z,93.30
2019-03-04T06:15:28.362Z,93.70
2019-03-04T06:17:57.608Z,94.10
2019-03-04T06:20:26.846Z,93.60
2019-03-04T06:22:56.040Z,94.70
2019-03-04T06:25:28.751Z,94.50
2019-03-04T06:27:58.052Z,93.40
2019-03-04T06:30:27.715Z,94.00
2019-03-04T06:32:57.009Z,92.80
2019-03-04T06:35:26.290Z,93.50
2019-03-04T06:37:55.704Z,94.40
2019-03-04T06:40:25.868Z,92.90
2019-03-04T06:42:55.107Z,92.50
2019-03-04T06:45:24.265Z,92.10
2019-03-04T06:47:53.481Z,93.00
2019-03-04T06:50:57.714Z,94.50
2019-03-04T06:53:43.037Z,97.10
2019-03-04T06:56:38.188Z,99.90
2019-03-04T06:59:12.354Z,99.80
2019-03-04T07:01:45.984Z,98.70
2019-03-04T07:04:23.663Z,98.40
2019-03-04T07:06:53.004Z,99.30
2019-03-04T07:09:22.316Z,97.60
2019-03-04T07:11:55.118Z,98.40
2019-03-04T07:14:24.359Z,98.30
2019-03-04T07:16:54.071Z,96.40
2019-03-04T07:19:24.666Z,91.40
2019-03-04T07:21:53.908Z,86.20
2019-03-04T07:24:23.217Z,81.70
2019-03-04T07:26:53.366Z,80.30
2019-03-04T07:29:22.614Z,78.50
2019-03-04T07:31:51.970Z,77.70
2019-03-04T07:34:21.317Z,77.30
2019-03-04T07:36:50.600Z,76.20
2019-03-04T07:39:20.597Z,75.40
2019-03-04T07:41:54.453Z,75.40
2019-03-04T07:44:23.691Z,74.10
2019-03-04T07:46:52.873Z,74.00
2019-03-04T07:49:23.878Z,74.90
2019-03-04T07:51:53.172Z,73.70
2019-03-04T07:54:22.438Z,75.30
2019-03-04T07:56:51.806Z,75.30
2019-03-04T07:59:21.135Z,75.10
2019-03-04T08:01:50.301Z,75.00
2019-03-04T08:04:19.597Z,75.20
2019-03-04T08:06:48.771Z,76.00
2019-03-04T08:09:52.816Z,76.00
2019-03-04T08:12:55.563Z,75.40
2019-03-04T08:15:25.422Z,74.20
2019-03-04T08:17:54.749Z,75.70
2019-03-04T08:20:24.007Z,76.80
2019-03-04T08:22:53.472Z,75.80
2019-03-04T08:25:22.778Z,77.00
2019-03-04T08:27:52.901Z,78.20
2019-03-04T08:30:23.150Z,80.10
2019-03-04T08:32:52.390Z,81.80
2019-03-04T08:35:21.626Z,83.00
2019-03-04T08:37:50.815Z,85.50
2019-03-04T08:40:19.977Z,91.80
2019-03-04T08:42:49.228Z,94.90
2019-03-04T08:45:20.013Z,97.50
2019-03-04T08:47:49.326Z,98.80
2019-03-04T08:50:18.803Z,99.90
2019-03-04T08:52:48.399Z,98.20
2019-03-04T08:55:17.896Z,99.30
2019-03-04T08:57:47.242Z,99.70
2019-03-04T09:00:19.046Z,98.40
2019-03-04T09:02:48.657Z,98.00
2019-03-04T09:05:18.282Z,95.20
2019-03-04T09:07:47.931Z,93.40
2019-03-04T09:10:25.493Z,94.10
2019-03-04T09:12:54.838Z,91.00
2019-03-04T09:15:24.375Z,92.00
2019-03-04T09:17:53.627Z,92.20
2019-03-04T09:20:23.996Z,89.70
2019-03-04T09:22:53.502Z,88.10
2019-03-04T09:25:30.353Z,89.30
2019-03-04T09:27:56.847Z,89.10
2019-03-04T09:30:26.162Z,88.20
2019-03-04T09:32:55.498Z,87.90
2019-03-04T09:35:24.780Z,86.80
2019-03-04T09:37:54.118Z,87.10
2019-03-04T09:40:23.385Z,84.40
2019-03-04T09:42:52.600Z,85.30
2019-03-04T09:45:21.845Z,83.10
2019-03-04T09:47:51.094Z,85.60
2019-03-04T09:50:20.369Z,84.00
2019-03-04T09:52:51.418Z,84.10
2019-03-04T09:55:21.388Z,85.30
2019-03-04T09:57:50.730Z,93.20
2019-03-04T10:01:00.022Z,99.90
2019-03-04T10:04:05.920Z,99.90
2019-03-04T10:07:10.293Z,99.90
2019-03-04T10:10:17.436Z,99.90
2019-03-04T10:13:21.505Z,99.90
2019-03-04T10:16:27.963Z,99.90
2019-03-04T10:19:15.556Z,99.90
2019-03-04T10:22:16.495Z,99.90
2019-03-04T10:25:36.124Z,99.90
2019-03-04T10:28:46.546Z,99.90
2019-03-04T10:31:38.438Z,99.90
2019-03-04T10:34:42.849Z,99.90
2019-03-04T10:37:49.303Z,99.90
2019-03-04T10:41:08.711Z,99.90
2019-03-04T10:44:37.514Z,99.90
2019-03-04T10:47:04.291Z,99.90
2019-03-04T10:49:35.506Z,99.90
2019-03-04T10:52:06.102Z,99.90
2019-03-04T10:54:35.409Z,99.90
2019-03-04T10:57:04.879Z,99.90
2019-03-04T10:59:34.141Z,99.90
2019-03-04T11:02:03.492Z,99.90
2019-03-04T11:04:32.808Z,99.90
2019-03-04T11:07:02.128Z,99.90
2019-03-04T11:09:32.253Z,99.90
2019-03-04T11:12:01.572Z,99.90
2019-03-04T11:14:30.889Z,99.90
2019-03-04T11:17:00.513Z,99.90
2019-03-04T11:19:29.795Z,99.90
2019-03-04T11:21:59.130Z,99.90
2019-03-04T11:24:28.576Z,99.90
2019-03-04T11:26:57.959Z,99.90
2019-03-04T11:29:27.536Z,99.90
2019-03-04T11:31:56.886Z,99.90
2019-03-04T11:34:27.569Z,99.90
2019-03-04T11:36:56.726Z,99.90
2019-03-04T11:39:48.014Z,99.90
2019-03-04T11:42:17.353Z,99.90
2019-03-04T11:44:46.685Z,99.90
2019-03-04T11:47:17.721Z,99.90
2019-03-04T11:49:47.020Z,99.90
2019-03-04T11:52:16.339Z,99.90
2019-03-04T11:54:45.688Z,99.90
2019-03-04T11:57:15.005Z,99.90
2019-03-04T11:59:44.255Z,99.90
2019-03-04T12:02:19.047Z,98.90
2019-03-04T12:04:48.304Z,95.40
2019-03-04T12:07:17.858Z,96.10
2019-03-04T12:09:47.130Z,96.80
2019-03-04T12:12:16.447Z,95.90
2019-03-04T12:14:45.706Z,94.50
2019-03-04T12:17:14.904Z,94.50
2019-03-04T12:19:44.227Z,92.40
2019-03-04T12:22:13.476Z,89.60
2019-03-04T12:24:42.697Z,86.70
2019-03-04T12:27:12.040Z,84.40
2019-03-04T12:29:41.369Z,89.70
2019-03-04T12:32:15.223Z,86.10
2019-03-04T12:34:46.128Z,85.20
2019-03-04T12:37:15.385Z,85.70
2019-03-04T12:39:44.702Z,86.70
2019-03-04T12:42:14.019Z,85.60
2019-03-04T12:44:43.290Z,82.20
2019-03-04T12:47:12.852Z,82.50
2019-03-04T12:49:42.127Z,78.60
2019-03-04T12:52:11.366Z,75.80
2019-03-04T12:54:40.718Z,75.80
2019-03-04T12:57:09.885Z,75.30
2019-03-04T12:59:39.121Z,70.20
2019-03-04T13:02:08.537Z,68.80
2019-03-04T13:04:37.903Z,69.90
2019-03-04T13:07:07.169Z,64.60
2019-03-04T13:09:36.519Z,68.50
2019-03-04T13:12:06.159Z,65.80
2019-03-04T13:14:35.458Z,67.90
2019-03-04T13:17:05.032Z,66.30
2019-03-04T13:19:34.251Z,67.10
2019-03-04T13:22:08.526Z,68.20
2019-03-04T13:24:34.538Z,65.70
2019-03-04T13:27:03.794Z,64.10
2019-03-04T13:29:32.982Z,65.60
2019-03-04T13:32:02.328Z,67.00
2019-03-04T13:34:31.572Z,67.10
2019-03-04T13:37:00.826Z,63.20
2019-03-04T13:39:30.111Z,65.50
2019-03-04T13:41:59.363Z,65.90
2019-03-04T13:44:28.615Z,61.00
2019-03-04T13:46:57.949Z,61.90
2019-03-04T13:49:27.208Z,61.80
2019-03-04T13:51:56.376Z,59.60
2019-03-04T13:54:25.667Z,60.50
2019-03-04T13:56:54.914Z,59.00
2019-03-04T13:59:24.162Z,59.40
2019-03-04T14:01:53.474Z,55.70
2019-03-04T14:04:22.635Z,54.20
2019-03-04T14:06:53.556Z,53.90
2019-03-04T14:09:23.474Z,54.90
2019-03-04T14:11:52.665Z,54.50
2019-03-04T14:14:21.906Z,53.40
2019-03-04T14:16:51.216Z,47.70
2019-03-04T14:19:20.530Z,48.10
2019-03-04T14:21:49.711Z,48.00
2019-03-04T14:24:19.001Z,47.20
2019-03-04T14:26:48.345Z,45.60
2019-03-04T14:29:17.668Z,44.70
2019-03-04T14:31:47.206Z,42.80
2019-03-04T14:34:16.521Z,45.00
2019-03-04T14:36:45.843Z,45.50
2019-03-04T14:39:16.398Z,47.10
2019-03-04T14:41:45.635Z,49.40
2019-03-04T14:44:14.867Z,50.10
2019-03-04T14:46:44.061Z,51.90
2019-03-04T14:49:13.299Z,52.50
2019-03-04T14:51:42.460Z,52.80
2019-03-04T14:54:11.820Z,50.00
2019-03-04T14:56:41.068Z,46.00
2019-03-04T14:59:11.348Z,46.10
2019-03-04T15:01:40.777Z,46.10
2019-03-04T15:04:10.087Z,45.70
2019-03-04T15:06:39.275Z,46.60
2019-03-04T15:09:13.333Z,46.40
2019-03-04T15:11:42.598Z,48.30
2019-03-04T15:14:11.801Z,48.60
2019-03-04T15:16:41.063Z,49.50
2019-03-04T15:19:10.237Z,48.70
2019-03-04T15:21:39.516Z,48.90
2019-03-04T15:24:08.791Z,48.70
2019-03-04T15:26:41.988Z,50.90
2019-03-04T15:29:09.007Z,51.60
2019-03-04T15:31:38.227Z,50.90
2019-03-04T15:34:07.485Z,53.30
2019-03-04T15:36:36.796Z,53.00
2019-03-04T15:39:22.491Z,52.50
2019-03-04T15:41:45.761Z,52.30
2019-03-04T15:44:14.920Z,49.80
2019-03-04T15:46:44.235Z,50.40
2019-03-04T15:49:13.471Z,51.30
2019-03-04T15:51:42.711Z,51.30
2019-03-04T15:54:12.022Z,52.60
2019-03-04T15:56:41.344Z,52.50
2019-03-04T15:59:10.656Z,53.00
2019-03-04T16:01:40.149Z,53.40
2019-03-04T16:04:09.394Z,53.10
2019-03-04T16:06:38.630Z,53.90
2019-03-04T16:09:14.930Z,54.10
2019-03-04T16:11:44.115Z,55.80
2019-03-04T16:14:13.296Z,55.70
2019-03-04T16:16:42.746Z,55.60
2019-03-04T16:19:12.000Z,55.20
2019-03-04T16:21:41.286Z,56.10
2019-03-04T16:24:10.565Z,55.60
2019-03-04T16:26:39.726Z,55.30
2019-03-04T16:29:08.987Z,55.80
2019-03-04T16:31:38.273Z,56.90
2019-03-04T16:34:07.502Z,57.50
2019-03-04T16:36:36.690Z,58.60
2019-03-04T16:39:06.720Z,59.10
2019-03-04T16:41:36.325Z,59.90
2019-03-04T16:44:05.559Z,60.40
2019-03-04T16:46:34.771Z,62.10
2019-03-04T16:49:04.152Z,62.10
2019-03-04T16:51:33.448Z,61.70
2019-03-04T16:54:02.760Z,61.70
2019-03-04T16:56:32.133Z,61.80
2019-03-04T16:59:01.451Z,61.60
2019-03-04T17:01:30.670Z,61.50
2019-03-04T17:03:59.945Z,61.10
2019-03-04T17:06:29.262Z,61.30
2019-03-04T17:08:58.620Z,61.10
2019-03-04T17:11:27.939Z,62.60
2019-03-04T17:13:57.206Z,62.90
2019-03-04T17:16:26.431Z,63.70
2019-03-04T17:18:55.788Z,64.60
2019-03-04T17:21:25.071Z,65.20
2019-03-04T17:23:54.356Z,65.90
2019-03-04T17:26:23.661Z,68.60
2019-03-04T17:28:52.966Z,68.40
2019-03-04T17:31:22.237Z,69.20
2019-03-04T17:33:51.474Z,69.90
2019-03-04T17:36:20.643Z,71.40
2019-03-04T17:38:50.010Z,70.70
2019-03-04T17:41:19.358Z,71.90
2019-03-04T17:43:48.590Z,72.20
2019-03-04T17:46:17.953Z,72.60
2019-03-04T17:48:47.256Z,72.90
2019-03-04T17:51:16.402Z,72.30
2019-03-04T17:53:45.619Z,74.40
2019-03-04T17:56:14.849Z,73.80
2019-03-04T17:58:44.030Z,74.10
2019-03-04T18:01:13.310Z,74.40
2019-03-04T18:03:42.583Z,75.30
2019-03-04T18:06:11.822Z,75.50
2019-03-04T18:08:41.092Z,75.60
2019-03-04T18:11:10.254Z,76.30
2019-03-04T18:13:39.843Z,77.00
2019-03-04T18:16:09.202Z,77.10
2019-03-04T18:18:38.456Z,77.80
2019-03-04T18:21:07.762Z,78.50
2019-03-04T18:23:36.958Z,78.80
2019-03-04T18:26:13.256Z,79.10
2019-03-04T18:29:04.517Z,80.30
2019-03-04T18:31:45.650Z,80.30
2019-03-04T18:34:47.600Z,80.90
2019-03-04T18:38:01.115Z,82.20
2019-03-04T18:41:03.774Z,82.60
2019-03-04T18:43:54.716Z,83.40
2019-03-04T18:47:00.882Z,84.00
2019-03-04T18:49:30.195Z,85.20
2019-03-04T18:51:59.554Z,84.80
2019-03-04T18:54:28.833Z,85.10
2019-03-04T18:56:58.157Z,84.70
2019-03-04T18:59:27.310Z,85.30
2019-03-04T19:01:56.583Z,86.40
2019-03-04T19:04:25.725Z,85.20
2019-03-04T19:06:54.978Z,84.50
2019-03-04T19:09:24.241Z,83.80
2019-03-04T19:11:53.556Z,84.60
2019-03-04T19:14:22.869Z,85.50
2019-03-04T19:16:52.176Z,87.30
2019-03-04T19:19:21.721Z,87.60
2019-03-04T19:21:50.977Z,88.50
2019-03-04T19:24:20.284Z,90.10
2019-03-04T19:26:49.548Z,90.40
2019-03-04T19:29:18.869Z,90.70
2019-03-04T19:31:48.134Z,93.50
2019-03-04T19:34:17.458Z,98.90
2019-03-04T19:36:46.908Z,99.90
2019-03-04T19:39:16.253Z,99.90
2019-03-04T19:41:45.429Z,99.90
2019-03-04T19:44:14.631Z,99.90
2019-03-04T19:46:44.022Z,99.90
2019-03-04T19:49:13.255Z,99.90
2019-03-04T19:51:42.569Z,99.90
2019-03-04T19:54:12.072Z,99.90
2019-03-04T19:56:41.317Z,99.90
2019-03-04T19:59:10.579Z,99.90
2019-03-04T20:01:39.783Z,99.90
2019-03-04T20:04:09.036Z,99.90
2019-03-04T20:06:38.338Z,99.90
2019-03-04T20:09:09.611Z,99.90
2019-03-04T20:11:38.848Z,99.90
2019-03-04T20:14:08.100Z,99.90
2019-03-04T20:16:37.437Z,99.90
2019-03-04T20:19:06.761Z,99.90
2019-03-04T20:21:35.929Z,99.90
2019-03-04T20:24:05.179Z,99.90
2019-03-04T20:26:34.416Z,99.90
2019-03-04T20:29:03.965Z,99.90
2019-03-04T20:31:33.164Z,99.90
2019-03-04T20:34:02.412Z,99.90
2019-03-04T20:36:31.748Z,99.90
2019-03-04T20:39:01.005Z,99.90
2019-03-04T20:41:32.838Z,99.90
2019-03-04T20:44:02.287Z,99.90
2019-03-04T20:46:31.560Z,99.90
2019-03-04T20:49:00.807Z,99.90
2019-03-04T20:51:29.972Z,99.90
2019-03-04T20:53:59.238Z,99.90
2019-03-04T20:56:28.483Z,99.90
2019-03-04T20:58:57.741Z,99.90
2019-03-04T21:01:27.624Z,99.90
2019-03-04T21:03:56.852Z,99.90
2019-03-04T21:06:26.092Z,99.90
2019-03-04T21:08:55.481Z,99.90
2019-03-04T21:11:25.104Z,99.90
2019-03-04T21:13:54.337Z,99.90
2019-03-04T21:16:23.687Z,99.90
2019-03-04T21:18:52.940Z,99.90
2019-03-04T21:21:22.265Z,99.90
2019-03-04T21:23:51.467Z,99.90
2019-03-04T21:26:26.663Z,99.90
2019-03-04T21:29:05.206Z,99.90
2019-03-04T21:31:44.510Z,99.90
2019-03-04T21:35:10.063Z,99.90
2019-03-04T21:37:44.694Z,99.90
2019-03-04T21:40:47.438Z,99.90
2019-03-04T21:43:25.236Z,99.90
2019-03-04T21:46:51.312Z,99.90
2019-03-04T21:49:21.201Z,99.90
2019-03-04T21:52:36.498Z,99.90
2019-03-04T21:55:12.641Z,99.90
2019-03-04T21:57:48.012Z,99.90
2019-03-04T22:00:26.063Z,99.90
2019-03-04T22:03:19.947Z,99.90
2019-03-04T22:05:50.653Z,99.90
2019-03-04T22:08:20.177Z,99.90
2019-03-04T22:10:49.529Z,99.90
2019-03-04T22:13:19.306Z,99.90
2019-03-04T22:15:48.999Z,99.90
2019-03-04T22:18:18.250Z,99.90
2019-03-04T22:20:47.428Z,99.90
2019-03-04T22:23:16.675Z,99.90
2019-03-04T22:25:45.930Z,99.90
2019-03-04T22:28:15.246Z,99.90
2019-03-04T22:30:44.497Z,99.90
2019-03-04T22:33:13.991Z,99.90
2019-03-04T22:35:43.329Z,99.90
2019-03-04T22:38:12.633Z,99.90
2019-03-04T22:40:41.904Z,99.90
2019-03-04T22:43:11.137Z,99.90
2019-03-04T22:45:40.442Z,99.90
2019-03-04T22:48:09.813Z,99.90
2019-03-04T22:50:39.149Z,99.90
2019-03-04T22:53:08.327Z,99.90
2019-03-04T22:55:38.141Z,99.90
2019-03-04T22:58:07.378Z,99.90
2019-03-04T23:01:28.626Z,99.90
2019-03-04T23:04:02.899Z,99.90
2019-03-04T23:06:33.276Z,99.90
2019-03-04T23:09:02.579Z,99.90
2019-03-04T23:11:31.876Z,99.90
2019-03-04T23:14:17.043Z,99.90
2019-03-04T23:16:46.283Z,99.90
2019-03-04T23:19:15.518Z,99.90
2019-03-04T23:21:44.869Z,99.90
2019-03-04T23:24:14.187Z,99.90
2019-03-04T23:26:43.416Z,99.90
2019-03-04T23:29:12.683Z,99.90
2019-03-04T23:31:42.439Z,99.90
2019-03-04T23:34:11.675Z,99.50
2019-03-04T23:36:40.959Z,99.90
2019-03-04T23:39:10.212Z,99.90
2019-03-04T23:41:39.649Z,99.10
2019-03-04T23:44:09.187Z,97.70
2019-03-04T23:46:38.537Z,97.00
2019-03-04T23:49:07.708Z,95.70
2019-03-04T23:51:37.286Z,93.00
2019-03-04T23:54:06.511Z,92.50
2019-03-04T23:56:35.675Z,91.20
2019-03-04T23:59:05.519Z,91.20
